DRI Storm Peak Lab. Weather observations

Data are for 5 minute period ending at time listed.
 Day   Time    Ave.   Ave.  Ave.  Vector  Max.   Total    Baro.    Solar      Aerosol      Ave.  Ultrafine   Snow  
  of    of     Air    Rel.  Wind   Wind   Wind  Precip.   Pres.  Radiation   Aerosol      Ozone   Aerosol    Depth 
Year   Day     Temp.  Hum.  Speed  Dir.   Gust                               Ave.   Max.            Ave.           
2015   (MST)    F      %     mph   deg.    mph    in.      mb.     w/m2         #/cm3      ppbv    #/cm3      in.  
-------------------------------------------------------------------------------------------------------------------
 114    4:15   28.3    64    9.4   192    13.5   999.00    682.8      0.0    -1423       0   999.0        0     0.0
 114    4:20   28.2    64    9.5   188    12.8   999.00    682.8      0.0    -1424       0   999.0        0     0.0
 114    4:25   27.9    66    9.0   183    11.1   999.00    682.8      0.0    -1424       0   999.0        0     0.0
 114    4:30   28.0    65    8.5   187    11.8   999.00    682.8      0.0    -1424       0   999.0        0     0.0
 114    4:35   28.1    64    9.3   188    12.6   999.00    682.7      0.0    -1423       0   999.0        0     0.0
 114    4:40   28.3    63    8.5   195    13.3   999.00    682.7      0.0    -1423       0   999.0        0     0.0
 114    4:45   28.3    63    6.3   202    11.8   999.00    682.7      0.0    -1424       0   999.0        0     0.0
 114    4:50   28.4    63    6.1   204    11.5   999.00    682.8      0.0    -1424       0   999.0        0     0.0
 114    4:55   28.4    63    5.8   206     8.3   999.00    682.8      0.0    -1424       0   999.0        0     0.0
 114    5:00   28.4    63    4.4   208     6.6   999.00    682.8      0.0    -1424       0   999.0        0     0.0
 114    5:05   28.3    63    5.1   206     7.6   999.00    682.7      0.0    -1424       0   999.0        0     0.0
 114    5:10   28.3    63    4.7   208     7.2   999.00    682.7      0.0    -1424       0   999.0        0     0.0
 114    5:15   28.2    63    5.0   208     7.8   999.00    682.7      0.0    -1424       0   999.0        0     0.0
 114    5:20   28.2    63    5.5   203     8.9   999.00    682.7      0.0    -1425       0   999.0        0     0.0
 114    5:25   28.1    63    5.3   206     8.3   999.00    682.7      0.0    -1425       0   999.0        0     0.0
 114    5:30   28.0    64    4.7   207     9.4   999.00    682.7      0.0    -1425       0   999.0        0     0.0
 114    5:35   28.2    63    5.5   214     8.7   999.00    682.7      0.0    -1425       0   999.0        0     0.0
 114    5:40   28.1    63    5.7   212     9.6   999.00    682.7      0.0    -1425       0   999.0        0     0.0
 114    5:45   28.2    63    4.2   208     5.9   999.00    682.8      0.0    -1425       0   999.0        0     0.0
 114    5:50   28.2    63    4.8   206     7.2   999.00    682.8      0.0    -1426       0   999.0        0     0.0
 114    5:55   28.2    63    4.7   205     9.2   999.00    682.9      0.0    -1426       0   999.0        0     0.0
 114    6:00   28.1    64    5.5   203     9.4   999.00    682.9      0.0    -1426       0   999.0        0     0.0
 114    6:05   28.2    64    5.5   203     9.4   999.00    682.9      0.0    -1426       0   999.0        0     0.0
 114    6:10   28.0    65    4.3   206     6.6   999.00    682.9      0.0    -1426       0   999.0        0     0.0
 114    6:15   27.9    65    3.4   208     5.2   999.00    682.8      0.0    -1426       0   999.0        0     0.0
 114    6:20   27.8    65    4.2   205     6.5   999.00    682.8      0.0    -1426       0   999.0        0     0.0
 114    6:25   28.0    64    3.7   208     5.3   999.00    682.9      0.0    -1426       0   999.0        0     0.0
 114    6:30   28.0    64    4.8   213     7.2   999.00    682.9      0.0    -1426       0   999.0        0     0.0
 114    6:35   28.3    64    5.7   217     7.8   999.00    682.9      0.0    -1426       0   999.0        0     0.0
 114    6:40   28.2    64    5.5   214     7.8   999.00    683.0      0.0    -1426       0   999.0        0     0.0
 114    6:45   28.2    64    6.6   218     8.9   999.00    683.0      0.0    -1426       0   999.0        0     0.0
 114    6:50   28.1    64    5.5   218     7.6   999.00    683.0      0.0    -1426       0   999.0        0     0.0
 114    6:55   28.2    64    6.5   217     9.8   999.00    682.9      0.0    -1426       0   999.0        0     0.0
 114    7:00   28.2    64    3.9   213     6.6   999.00    682.8      0.0    -1426       0   999.0        0     0.0
 114    7:05   28.1    64    4.5   211     7.0   999.00    682.8      0.0    -1426       0   999.0        0     0.0
 114    7:10   28.3    64    4.4   210     6.6   999.00    682.8      0.0    -1426       0   999.0        0     0.0
 114    7:15   28.3    64    4.1   214     7.8   999.00    682.8      0.0    -1426       0   999.0        0     0.0
 114    7:20   28.6    63    4.9   217     7.4   999.00    682.9      0.0    -1426       0   999.0        0     0.0
 114    7:25   28.7    63    4.0   206     5.5   999.00    682.9      0.0    -1426       0   999.0        0     0.0
 114    7:30   28.7    63    5.5   216     7.6   999.00    682.8      0.0    -1426       0   999.0        0     0.0
 114    7:35   28.6    63    6.1   216     8.3   999.00    682.8      0.0    -1425       0   999.0        0     0.0
 114    7:40   28.5    63    5.5   214     7.6   999.00    682.8      0.0    -1425       0   999.0        0     0.0
 114    7:45   28.6    63    5.3   214     8.1   999.00    682.8      0.0    -1425       0   999.0        0     0.0
 114    7:50   28.6    62    7.5   219     9.8   999.00    682.7      0.0    -1425       0   999.0        0     0.0
 114    7:55   28.6    63    7.1   214     9.2   999.00    682.8      0.0    -1425       0   999.0        0     0.0
 114    8:00   28.8    63    7.8   218    12.0   999.00    682.7      0.0    -1425       0   999.0        0     0.0
 114    8:05   28.6    63    9.6   226    12.6   999.00    682.7      0.0    -1425       0   999.0        0     0.0
 114    8:10   28.6    63    9.3   225    12.2   999.00    682.7      0.0    -1425       0   999.0        0     0.0
 114    8:15   28.8    63   10.4   230    16.1   999.00    682.7      0.0    -1425       0   999.0        0     0.0
 114    8:20   28.8    63   11.3   232    15.9   999.00    682.6      0.0    -1425       0   999.0        0     0.0
 114    8:25   28.8    63   13.1   234    16.9   999.00    682.5      0.0    -1425       0   999.0        0     0.0
 114    8:30   28.8    63   11.5   237    16.5   999.00    682.5      0.0    -1425       0   999.0        0     0.0
 114    8:35   28.8    63   12.1   234    16.3   999.00    682.5      0.0    -1425       0   999.0        0     0.0
 114    8:40   28.9    63   11.6   242    16.1   999.00    682.5      0.0    -1425       0   999.0        0     0.0
 114    8:45   29.2    63    8.0   238    12.8   999.00    682.6      0.0    -1425       0   999.0        0     0.0
 114    8:50   29.4    63    7.0   233    12.6   999.00    682.6      0.0    -1425       0   999.0        0     0.0
 114    8:55   29.8    63    5.6   244     9.2   999.00    682.7      0.0    -1425       0   999.0        0     0.0
 114    9:00   30.0    62    6.2   247    10.2   999.00    682.6      0.0    -1425       0   999.0        0     0.0
 114    9:05   30.6    62    7.5   256    14.3   999.00    682.6      0.0    -1425       0   999.0        0     0.0
 114    9:10   31.2    60    7.9   265    13.3   999.00    682.6      0.0    -1425       0   999.0        0     0.0
 114    9:15   31.6    60    7.8   277    12.2   999.00    682.6      0.0    -1425       0   999.0        0     0.0
 114    9:20   31.6    60    8.1   281    13.2   999.00    682.6      0.0    -1425       0   999.0        0     0.0
 114    9:25   31.7    60    7.9   267    12.2   999.00    682.6      0.0    -1425       0   999.0        0     0.0
 114    9:30   32.1    60    6.6   277    12.2   999.00    682.6      0.0    -1425       0   999.0        0     0.0
 114    9:35   32.2    59    9.3   271    13.5   999.00    682.6      0.0    -1424       0   999.0        0     0.0
 114    9:40   31.7    60    8.9   265    15.2   999.00    682.6      0.0    -1424       0   999.0        0     0.0
 114    9:45   32.4    60    7.7   290    11.3   999.00    682.5      0.0    -1424       0   999.0        0     0.0
 114    9:50   32.5    59   10.3   303    14.1   999.00    682.5      0.0    -1424       0   999.0        0     0.0
 114    9:55   32.3    59    8.3   286    12.8   999.00    682.5      0.0    -1424       0   999.0        0     0.0
 114   10:00   32.2    59    8.6   302    12.6   999.00    682.4      0.0    -1424       0   999.0        0     0.0
 114   10:05   32.8    59    9.2   294    15.4   999.00    682.4      0.0    -1424       0   999.0        0     0.0
 114   10:10   33.0    58    9.6   290    14.3   999.00    682.3      0.0    -1423       0   999.0        0     0.0
 114   10:15   33.2    58    7.0   278    10.4   999.00    682.4      0.0    -1423       0   999.0        0     0.0
 114   10:20   33.2    58   10.0   279    17.8   999.00    682.3      0.0    -1423       0   999.0        0     0.0
 114   10:25   33.8    58    7.9   270    13.2   999.00    682.2      0.0    -1423       0   999.0        0     0.0
 114   10:30   33.8    58    8.8   273    14.6   999.00    682.2      0.0    -1423       0   999.0        0     0.0
 114   10:35   33.9    56   12.0   283    19.1   999.00    682.1      0.0    -1422       0   999.0        0     0.0
 114   10:40   33.3    57   11.3   294    17.6   999.00    682.0      0.0    -1422       0   999.0        0     0.0
 114   10:45   33.8    55   13.3   276    20.4   999.00    682.0      0.0    -1422       0   999.0        0     0.0
 114   10:50   33.6    57   10.4   286    15.9   999.00    682.0      0.0    -1422       0   999.0        0     0.0
 114   10:55   34.0    55   12.3   285    18.7   999.00    681.9      0.0    -1421       0   999.0        0     0.0
 114   11:00   34.2    51   12.7   281    19.1   999.00    681.9      0.0    -1421       0   999.0        0     0.0
 114   11:05   33.9    52   12.3   264    18.4   999.00    681.9      0.0    -1421       0   999.0        0     0.0
 114   11:10   34.1    52   11.7   274    17.4   999.00    681.9      0.0    -1421       0   999.0        0     0.0
 114   11:15   33.9    52   11.1   260    18.7   999.00    681.9      0.0    -1421       0   999.0        0     0.0
 114   11:20   33.1    55   17.1   230    21.1   999.00    681.9      0.0    -1421       0   999.0        0     0.0
 114   11:25   32.6    57   11.0   222    16.1   999.00    681.8      0.0    -1421       0   999.0        0     0.0
 114   11:30   32.5    58   11.8   229    16.5   999.00    681.8      0.0    -1421       0   999.0        0     0.0
 114   11:35   32.1    62    9.2   220    14.1   999.00    681.8      0.0    -1421       0   999.0        0     0.0
 114   11:40   32.1    62    9.5   281    16.5   999.00    681.9      0.0    -1420       0   999.0        0     0.0
 114   11:45   31.5    61   10.7   304    16.3   999.00    681.9      0.0    -1420       0   999.0        0     0.0
 114   11:50   30.8    61    8.9   306    14.8   999.00    681.9      0.0    -1420       0   999.0        0     0.0
 114   11:55   30.8    60    6.4   314    10.6   999.00    681.9      0.0    -1420       0   999.0        0     0.0
 114   12:00   31.6    60    5.9   280     8.9   999.00    681.9      0.0    -1420       0   999.0        0     0.0
 114   12:05   32.9    58    4.6   266     9.8   999.00    681.9      0.0    -1420       0   999.0        0     0.0
 114   12:10   32.2    59   12.3   232    18.5   999.00    681.9      0.0    -1420       0   999.0        0     0.0
 114   12:15   31.7    60   11.1   248    18.2   999.00    681.8      0.0    -1420       0   999.0        0     0.0
 114   12:20   32.4    57    9.2   262    17.2   999.00    681.8      0.0    -1420       0   999.0        0     0.0
 114   12:25   32.8    53   13.0   248    20.0   999.00    681.7      0.0    -1419       0   999.0        0     0.0
 114   12:30   33.4    53   10.1   262    15.0   999.00    681.6      0.0    -1419       0   999.0        0     0.0
 114   12:35   33.6    51   15.8   246    22.6   999.00    681.6      0.0    -1419       0   999.0        0     0.0
 114   12:40   33.2    53   15.0   259    22.3   999.00    681.6      0.0    -1419       0   999.0        0     0.0
 114   12:45   33.6    53   14.0   278    18.2   999.00    681.5      0.0    -1419       0   999.0        0     0.0
 114   12:50   33.9    52   14.7   288    22.5   999.00    681.5      0.0    -1418       0   999.0        0     0.0
 114   12:55   33.9    53   12.5   278    17.1   999.00    681.5      0.0    -1418       0   999.0        0     0.0
 114   13:00   34.5    54   11.0   274    18.9   999.00    681.6      0.0    -1419       0   999.0        0     0.0
 114   13:05   34.8    55   12.3   305    18.9   999.00    681.5      0.0    -1418       0   999.0        0     0.0
 114   13:10   33.8    55   13.7   314    20.4   999.00    681.6      0.0    -1418       0   999.0        0     0.0
 114   13:15   33.8    55   10.4   316    13.2   999.00    681.6      0.0    -1418       0   999.0        0     0.0
 114   13:20   33.9    56   11.7   314    15.6   999.00    681.6      0.0    -1418       0   999.0        0     0.0
 114   13:25   33.7    57    9.0   286    14.6   999.00    681.7      0.0    -1418       0   999.0        0     0.0
 114   13:30   34.3    56    9.4   295    16.7   999.00    681.6      0.0    -1418       0   999.0        0     0.0
 114   13:35   34.7    56    8.4   303    12.8   999.00    681.6      0.0    -1418       0   999.0        0     0.0
 114   13:40   35.0    56    7.4   298    11.7   999.00    681.6      0.0    -1418       0   999.0        0     0.0
 114   13:45   34.6    56    7.4   280    12.8   999.00    681.6      0.0    -1418       0   999.0        0     0.0
 114   13:50   33.8    56    7.3   283    10.9   999.00    681.6      0.0    -1417       0   999.0        0     0.0
 114   13:55   33.7    56    4.0   281     5.9   999.00    681.5      0.0    -1417       0   999.0        0     0.0
 114   14:00   33.5    56    5.9   290     9.6   999.00    681.5      0.0    -1417       0   999.0        0     0.0
 114   14:05   33.9    53    6.3   281    10.6   999.00    681.5      0.0    -1417       0   999.0        0     0.0
 114   14:10   33.7    54    6.8   264    10.7   999.00    681.5      0.0    -1417       0   999.0        0     0.0
 114   14:15   33.6    53    6.2   277    10.6   999.00    681.5      0.0    -1417       0   999.0        0     0.0
 114   14:20   33.7    54    5.7   270    12.2   999.00    681.4      0.0    -1417       0   999.0        0     0.0
 114   14:25   33.5    56    9.7   233    17.8   999.00    681.4      0.0    -1416       0   999.0        0     0.0
 114   14:30   33.3    58   13.4   225    18.7   999.00    681.3      0.0    -1416       0   999.0        0     0.0
 114   14:35   33.5    57   16.0   233    23.8   999.00    681.3      0.0    -1416       0   999.0        0     0.0
 114   14:40   33.4    58   14.9   221    26.0   999.00    681.3      0.0    -1416       0   999.0        0     0.0
 114   14:45   33.2    60   20.6   237    30.1   999.00    681.3      0.0    -1416       0   999.0        0     0.0
 114   14:50   32.7    63   17.5   262    26.7   999.00    681.4      0.0    -1416       0   999.0        0     0.0
 114   14:55   32.3    67   15.7   272    23.0   999.00    681.4      0.0    -1416       0   999.0        0     0.0
 114   15:00   31.2    68   16.5   290    20.8   999.00    681.4      0.0    -1416       0   999.0        0     0.0
 114   15:05   30.7    67   15.2   287    21.1   999.00    681.5      0.0    -1417       0   999.0        0     0.0
 114   15:10   30.6    68   17.8   262    24.1   999.00    681.6      0.0    -1417       0   999.0        0     0.0
 114   15:15   29.7    73   16.5   271    25.8   999.00    681.6      0.0    -1417       0   999.0        0     0.0
 114   15:20   28.7    79    7.7   263    13.2   999.00    681.7      0.0    -1418       0   999.0        0     0.0
 114   15:25   30.3    71   10.0   280    14.8   999.00    681.6      0.0    -1418       0   999.0        0     0.0
 114   15:30   31.1    68    9.6   276    13.9   999.00    681.6      0.0    -1418       0   999.0        0     0.0
 114   15:35   30.6    74   17.1   299    25.1   999.00    681.4      0.0    -1418       0   999.0        0     0.0
 114   15:40   29.9    78   18.6   301    24.1   999.00    681.5      0.0    -1418       0   999.0        0     0.0
 114   15:45   29.9    80   17.4   299    21.7   999.00    681.5      0.0    -1418       0   999.0        0     0.0
 114   15:50   29.7    81   17.0   301    24.1   999.00    681.6      0.0    -1419       0   999.0        0     0.0
 114   15:55   29.4    83   16.7   308    23.4   999.00    681.7      0.0    -1419       0   999.0        0     0.0
 114   16:00   29.1    84   15.2   304    20.0   999.00    681.7      0.0    -1419       0   999.0        0     0.0
 114   16:05   28.9    85   14.7   308    19.3   999.00    681.6      0.0    -1419       0   999.0        0     0.0
 114   16:10   28.7    83   13.8   309    18.2   999.00    681.7      0.0    -1420       0   999.0        0     0.0
 114   16:15   28.6    84   11.8   302    15.9   999.00    681.8      0.0    -1420       0   999.0        0     0.0
 114   16:20   28.6    84   10.1   299    14.4   999.00    681.9      0.0    -1421       0   999.0        0     0.0
 114   16:25   28.4    84   12.0   313    19.5   999.00    681.9      0.0    -1421       0   999.0        0     0.0
 114   16:30   28.0    84    7.7   297    15.2   999.00    681.8      0.0    -1421       0   999.0        0     0.0
 114   16:35   28.7    78    8.2   264    13.9   999.00    681.8      0.0    -1421       0   999.0        0     0.0
 114   16:40   29.7    72   10.9   244    15.2   999.00    681.7      0.0    -1421       0   999.0        0     0.0
 114   16:45   30.1    69    8.8   234    13.2   999.00    681.6      0.0    -1421       0   999.0        0     0.0
 114   16:50   30.6    66    8.5   239    12.6   999.00    681.6      0.0    -1421       0   999.0        0     0.0
 114   16:55   30.8    65    6.7   246    10.7   999.00    681.6      0.0    -1420       0   999.0        0     0.0
 114   17:00   30.9    65    6.9   229    10.7   999.00    681.7      0.0    -1420       0   999.0        0     0.0
 114   17:05   31.0    64    5.1   210     8.3   999.00    681.6      0.0    -1420       0   999.0        0     0.0
 114   17:10   31.4    63    5.4   212     9.6   999.00    681.6      0.0    -1420       0   999.0        0     0.0
 114   17:15   32.2    61    6.5   205    10.0   999.00    681.6      0.0    -1420       0   999.0        0     0.0
 114   17:20   32.5    60    6.5   208    11.7   999.00    681.6      0.0    -1419       0   999.0        0     0.0
 114   17:25   33.1    60    5.5   211     8.3   999.00    681.7      0.0    -1419       0   999.0        0     0.0
 114   17:30   33.4    59    7.2   212    11.5   999.00    681.7      0.0    -1419       0   999.0        0     0.0
 114   17:35   33.4    60    9.2   220    13.9   999.00    681.8      0.0    -1418       0   999.0        0     0.0
 114   17:40   33.4    60    9.8   235    16.1   999.00    681.7      0.0    -1418       0   999.0        0     0.0
 114   17:45   33.1    60   10.5   241    15.0   999.00    681.8      0.0    -1417       0   999.0        0     0.0
 114   17:50   32.7    61   10.0   244    13.9   999.00    681.8      0.0    -1417       0   999.0        0     0.0
 114   17:55   32.3    62   12.0   239    15.4   999.00    681.8      0.0    -1417       0   999.0        0     0.0
 114   18:00   32.1    62    9.8   232    12.0   999.00    681.8      0.0    -1417       0   999.0        0     0.0
 114   18:05   32.0    62   12.5   230    17.2   999.00    681.9      0.0    -1416       0   999.0        0     0.0
 114   18:10   32.0    62   13.1   239    16.7   999.00    681.9      0.0    -1416       0   999.0        0     0.0
 114   18:15   32.0    62   14.2   242    16.7   999.00    681.9      0.0    -1416       0   999.0        0     0.0
 114   18:20   31.9    63    9.7   258    14.1   999.00    682.0      0.0    -1417       0   999.0        0     0.0
 114   18:25   31.6    64   15.1   251    27.3   999.00    682.1      0.0    -1417       0   999.0        0     0.0
 114   18:30   30.8    66   13.8   278    23.4   999.00    681.9      0.0    -1416       0   999.0        0     0.0
 114   18:35   31.6    62   14.8   257    21.7   999.00    681.9      0.0    -1417       0   999.0        0     0.0
 114   18:40   31.7    63   13.5   253    19.1   999.00    682.0      0.0    -1417       0   999.0        0     0.0
 114   18:45   30.8    72   15.6   283    21.7   999.00    681.9      0.0    -1417       0   999.0        0     0.0
 114   18:50   28.8    89   14.5   295    17.8   999.00    682.0      0.0    -1417       0   999.0        0     0.0
 114   18:55   28.5    91   13.8   310    18.5   999.00    682.0      0.0    -1418       0   999.0        0     0.0
 114   19:00   28.5    91   12.9   321    15.9   999.00    682.1      0.0    -1418       0   999.0        0     0.0
 114   19:05   28.1    93   16.7   319    20.4   999.00    682.1      0.0    -1418       0   999.0        0     0.0
 114   19:10   27.4    95   13.9   313    17.4   999.00    682.1      0.0    -1419       0   999.0        0     0.0
 114   19:15   27.3    96   13.6   321    19.5   999.00    682.2      0.0    -1419       0   999.0        0     0.0
 114   19:20   27.2    96   12.9   314    17.8   999.00    682.3      0.0    -1419       0   999.0        0     0.0
 114   19:25   27.2    97   11.7   313    15.4   999.00    682.3      0.0    -1420       0   999.0        0     0.0
 114   19:30   27.1    96   12.3   310    16.7   999.00    682.3      0.0    -1420       0   999.0        0     0.0
 114   19:35   27.2    95   11.0   310    16.1   999.00    682.3      0.0    -1420       0   999.0        0     0.0
 114   19:40   26.9    96   10.2   317    14.8   999.00    682.4      0.0    -1420       0   999.0        0     0.0
 114   19:45   26.6    97    4.6   320     7.8   999.00    682.4      0.0    -1421       0   999.0        0     0.0
 114   19:50   26.7    96    7.4   294    13.0   999.00    682.4      0.0    -1421       0   999.0        0     0.0
 114   19:55   27.5    92    9.3   273    15.8   999.00    682.4      0.0    -1421       0   999.0        0     0.0
 114   20:00   28.3    85   15.3   258    20.6   999.00    682.4      0.0    -1421       0   999.0        0     0.0
 114   20:05   29.1    80   14.1   260    19.7   999.00    682.4      0.0    -1421       0   999.0        0     0.0
 114   20:10   29.2    80   14.1   264    18.4   999.00    682.4      0.0    -1422       0   999.0        0     0.0
 114   20:15   29.2    80   13.2   262    18.7   999.00    682.5      0.0    -1422       0   999.0        0     0.0
 114   20:20   29.7    76   19.9   251    25.8   999.00    682.5      0.0    -1422       0   999.0        0     0.0
 114   20:25   30.1    74   16.8   259    22.1   999.00    682.5      0.0    -1422       0   999.0        0     0.0
 114   20:30   29.8    75   16.4   263    21.9   999.00    682.6      0.0    -1423       0   999.0        0     0.0
 114   20:35   29.4    78   12.7   281    20.0   999.00    682.6      0.0    -1423       0   999.0        0     0.0
 114   20:40   28.7    82   11.9   294    15.4   999.00    682.6      0.0    -1423       0   999.0        0     0.0
 114   20:45   28.0    88   10.6   310    14.6   999.00    682.6      0.0    -1423       0   999.0        0     0.0
 114   20:50   27.6    90    8.2   300    12.0   999.00    682.7      0.0    -1424       0   999.0        0     0.0
 114   20:55   27.9    85    8.2   290    12.4   999.00    682.6      0.0    -1424       0   999.0        0     0.0
 114   21:00   28.2    82    8.5   278    13.0   999.00    682.6      0.0    -1424       0   999.0        0     0.0
 114   21:05   28.4    81    8.1   278    11.5   999.00    682.7      0.0    -1424       0   999.0        0     0.0
 114   21:10   28.6    80    8.7   270    12.2   999.00    682.7      0.0    -1424       0   999.0        0     0.0
 114   21:15   28.7    78    8.8   267    10.9   999.00    682.7      0.0    -1424       0   999.0        0     0.0
 114   21:20   29.0    76   10.1   258    12.4   999.00    682.7      0.0    -1424       0   999.0        0     0.0
 114   21:25   29.2    74    9.9   259    12.0   999.00    682.6      0.0    -1424       0   999.0        0     0.0
 114   21:30   29.1    75   11.3   252    14.4   999.00    682.7      0.0    -1425       0   999.0        0     0.0
 114   21:35   29.3    74   12.5   246    15.2   999.00    682.7      0.0    -1425       0   999.0        0     0.0
 114   21:40   28.9    77   11.7   239    13.7   999.00    682.7      0.0    -1425       0   999.0        0     0.0
 114   21:45   28.6    78   11.9   232    13.7   999.00    682.7      0.0    -1425       0   999.0        0     0.0
 114   21:50   29.2    75    9.9   222    13.7   999.00    682.7      0.0    -1425       0   999.0        0     0.0
 114   21:55   29.7    71    8.3   217    13.5   999.00    682.7      0.0    -1425       0   999.0        0     0.0
 114   22:00   29.6    73   10.8   204    16.1   999.00    682.8      0.0    -1425       0   999.0        0     0.0
 114   22:05   29.4    75   13.4   195    16.7   999.00    682.7      0.0    -1425       0   999.0        0     0.0
 114   22:10   29.3    74   13.2   194    18.5   999.00    682.6      0.0    -1424       0   999.0        0     0.0
 114   22:15   29.5    70   14.2   198    18.7   999.00    682.7      0.0    -1424       0   999.0        0     0.0
 114   22:20   29.6    70   11.3   200    15.2   999.00    682.7      0.0    -1424       0   999.0        0     0.0
 114   22:25   29.5    70   13.9   199    19.9   999.00    682.6      0.0    -1424       0   999.0        0     0.0
 114   22:30   29.5    71   14.4   193    19.5   999.00    682.6      0.0    -1423       0   999.0        0     0.0
 114   22:35   29.4    71   14.0   195    21.9   999.00    682.6      0.0    -1423       0   999.0        0     0.0
 114   22:40   29.6    69   11.9   205    17.6   999.00    682.6      0.0    -1423       0   999.0        0     0.0
 114   22:45   29.8    66    9.7   209    13.2   999.00    682.6      0.0    -1423       0   999.0        0     0.0
 114   22:50   30.0    65   10.3   209    16.3   999.00    682.6      0.0    -1423       0   999.0        0     0.0
 114   22:55   30.1    64    9.4   208    15.6   999.00    682.5      0.0    -1423       0   999.0        0     0.0
 114   23:00   30.1    64    8.8   213    15.9   999.00    682.5      0.0    -1423       0   999.0        0     0.0
 114   23:05   30.0    65    9.7   216    15.0   999.00    682.5      0.0    -1423       0   999.0        0     0.0
 114   23:10   29.9    65   10.0   215    14.8   999.00    682.6      0.0    -1423       0   999.0        0     0.0
 114   23:15   29.9    65   10.8   216    15.2   999.00    682.5      0.0    -1423       0   999.0        0     0.0
 114   23:20   29.8    65    9.3   211    15.4   999.00    682.5      0.0    -1423       0   999.0        0     0.0
 114   23:25   29.8    65    9.8   213    13.5   999.00    682.6      0.0    -1423       0   999.0        0     0.0
 114   23:30   29.7    66   10.2   216    14.6   999.00    682.7      0.0    -1424       0   999.0        0     0.0
 114   23:35   29.7    65   11.8   213    17.2   999.00    682.7      0.0    -1424       0   999.0        0     0.0
 114   23:40   29.7    65   13.2   212    21.1   999.00    682.6      0.0    -1424       0   999.0        0     0.0
 114   23:45   29.6    66   12.2   215    18.4   999.00    682.7      0.0    -1424       0   999.0        0     0.0
 114   23:50   29.4    66   13.7   218    18.7   999.00    682.6      0.0    -1424       0   999.0        0     0.0
 114   23:55   29.4    66   15.7   220    23.4   999.00    682.6      0.0    -1424       0   999.0        0     0.0
 115    0:00   29.3    67   17.7   227    21.3   999.00    682.6      0.0    -1424       0   999.0        0     0.0
 115    0:05   29.0    68   17.9   227    23.6   999.00    682.6      0.0    -1424       0   999.0        0     0.0
 115    0:10   28.7    70   16.8   226    21.3   999.00    682.6      0.0    -1424       0   999.0        0     0.0
 115    0:15   28.6    70   14.8   222    18.7   999.00    682.6      0.0    -1425       0   999.0        0     0.0
 115    0:20   28.6    70   16.1   225    20.6   999.00    682.6      0.0    -1425       0   999.0        0     0.0
 115    0:25   28.7    70   14.6   225    19.5   999.00    682.5      0.0    -1425       0   999.0        0     0.0
 115    0:30   28.5    70   15.6   225    18.4   999.00    682.5      0.0    -1425       0   999.0        0     0.0
 115    0:35   28.5    70   15.5   223    20.2   999.00    682.6      0.0    -1425       0   999.0        0     0.0
 115    0:40   28.5    71   15.6   224    19.7   999.00    682.6      0.0    -1426       0   999.0        0     0.0
 115    0:45   28.6    70   15.4   227    20.0   999.00    682.6      0.0    -1426       0   999.0        0     0.0
 115    0:50   28.6    71   15.3   226    18.7   999.00    682.6      0.0    -1426       0   999.0        0     0.0
 115    0:55   28.8    70   15.8   226    22.5   999.00    682.5      0.0    -1426       0   999.0        0     0.0
 115    1:00   28.9    70   16.6   228    21.0   999.00    682.5      0.0    -1427       0   999.0        0     0.0
 115    1:05   28.8    70   17.7   230    25.4   999.00    682.5      0.0    -1427       0   999.0        0     0.0
 115    1:10   29.1    71   20.0   234    25.1   999.00    682.5      0.0    -1427       0   999.0        0     0.0
 115    1:15   29.1    71   18.3   234    21.7   999.00    682.5      0.0    -1428       0   999.0        0     0.0
 115    1:20   29.0    71   17.2   234    22.1   999.00    682.5      0.0    -1427       0   999.0        0     0.0
 115    1:25   29.0    71   17.4   237    21.7   999.00    682.5      0.0    -1427       0   999.0        0     0.0
 115    1:30   29.0    71   17.7   241    21.5   999.00    682.4      0.0    -1428       0   999.0        0     0.0
 115    1:35   29.1    71   18.3   238    21.5   999.00    682.4      0.0    -1428       0   999.0        0     0.0
 115    1:40   29.1    72   17.2   236    21.1   999.00    682.4      0.0    -1429       0   999.0        0     0.0
 115    1:45   28.9    72   16.5   236    20.2   999.00    682.5      0.0    -1429       0   999.0        0     0.0
 115    1:50   28.9    72   17.4   234    20.4   999.00    682.5      0.0    -1429       0   999.0        0     0.0
 115    1:55   28.9    72   15.8   232    20.4   999.00    682.5      0.0    -1429       0   999.0        0     0.0
 115    2:00   28.9    72   16.4   233    20.8   999.00    682.5      0.0    -1429       0   999.0        0     0.0
 115    2:05   29.0    72   17.6   231    22.5   999.00    682.5      0.0    -1429       0   999.0        0     0.0
 115    2:10   29.2    72   17.3   239    24.1   999.00    682.5      0.0    -1429       0   999.0        0     0.0
 115    2:15   29.1    72   15.0   231    20.2   999.00    682.5      0.0    -1430       0   999.0        0     0.0
 115    2:20   28.9    73   11.8   224    15.6   999.00    682.5      0.0    -1430       0   999.0        0     0.0
 115    2:25   28.8    73   13.6   224    18.7   999.00    682.5      0.0    -1430       0   999.0        0     0.0
 115    2:30   28.9    74   14.3   228    22.1   999.00    682.5      0.0    -1430       0   999.0        0     0.0
 115    2:35   28.8    74   15.1   223    23.6   999.00    682.4      0.0    -1430       0   999.0        0     0.0
 115    2:40   29.0    75   17.6   227    22.8   999.00    682.4      0.0    -1430       0   999.0        0     0.0
 115    2:45   29.0    75   14.3   226    18.0   999.00    682.4      0.0    -1430       0   999.0        0     0.0
 115    2:50   28.8    75   12.8   220    19.5   999.00    682.4      0.0    -1430       0   999.0        0     0.0
 115    2:55   28.8    76   13.4   217    24.1   999.00    682.4      0.0    -1430       0   999.0        0     0.0
 115    3:00   28.9    77   12.0   217    17.6   999.00    682.3      0.0    -1430       0   999.0        0     0.0
 115    3:05   28.7    76   13.2   219    18.2   999.00    682.3      0.0    -1430       0   999.0        0     0.0
 115    3:10   28.5    77   14.4   209    25.6   999.00    682.3      0.0    -1430       0   999.0        0     0.0
 115    3:15   27.5    86   13.3   210    19.9   999.00    682.4      0.0    -1430       0   999.0        0     0.0
 115    3:20   27.3    87   12.1   214    17.4   999.00    682.3      0.0    -1430       0   999.0        0     0.0
 115    3:25   27.5    86   12.4   220    19.1   999.00    682.4      0.0    -1430       0   999.0        0     0.0
 115    3:30   27.5    87   15.2   222    18.7   999.00    682.4      0.0    -1430       0   999.0        0     0.0
 115    3:35   27.7    86   15.0   224    19.3   999.00    682.5      0.0    -1430       0   999.0        0     0.0
 115    3:40   27.5    86   11.3   218    17.4   999.00    682.5      0.0    -1430       0   999.0        0     0.0
 115    3:45   27.5    84   10.7   207    15.8   999.00    682.5      0.0    -1430       0   999.0        0     0.0
 115    3:50   27.5    83   12.4   202    19.9   999.00    682.5      0.0    -1430       0   999.0        0     0.0
 115    3:55   27.4    83   12.6   195    19.5   999.00    682.5      0.0    -1430       0   999.0        0     0.0
 115    4:00   27.3    85    9.8   200    15.0   999.00    682.5      0.0    -1430       0   999.0        0     0.0
 115    4:05   27.2    86   11.1   212    18.0   999.00    682.5      0.0    -1430       0   999.0        0     0.0
 115    4:10   27.2    86   14.5   223    21.5   999.00    682.4      0.0    -1430       0   999.0        0     0.0

Return to DRI Storm Peak Lab. graphs page.


Western Regional Climate Center,wrcc@dri.edu